Time;durP1;ratioP1;P1;durP2;ratioP2;P2;SDS_P1;SDS_P2;PMS_P1;PMS_P2;Temp;Humidity;BMP_temperature;BMP_pressure;BME280_temperature;BME280_humidity;BME280_pressure;Samples;Min_cycle;Max_cycle;Signal;HPM_P1;HPM_P2
2023/05/13 00:01:14;;;;;;;;;;;11.60;99.90;;;;;;4801844;29;19936;-77
2023/05/13 00:03:42;;;;;;;;;;;11.60;99.90;;;;;;4804156;29;22718;-76
2023/05/13 00:06:10;;;;;;;;;;;11.60;99.90;;;;;;4816850;29;19936;-76
2023/05/13 00:08:37;;;;;;;;;;;11.60;99.90;;;;;;4789580;29;19936;-76
2023/05/13 00:11:04;;;;;;;;;;;11.70;99.90;;;;;;4803520;29;19936;-78
2023/05/13 00:13:32;;;;;;;;;;;11.50;99.90;;;;;;4802737;29;20005;-76
2023/05/13 00:16:02;;;;;;;;;;;11.50;99.90;;;;;;4801263;29;19943;-76
2023/05/13 00:18:29;;;;;;;;;;;11.50;99.90;;;;;;4805931;29;20104;-77
2023/05/13 00:20:57;;;;;;;;;;;11.40;99.90;;;;;;4793966;29;20015;-76
2023/05/13 00:23:24;;;;;;;;;;;11.50;99.90;;;;;;4805107;29;19936;-77
2023/05/13 00:25:51;;;;;;;;;;;11.40;99.90;;;;;;4787292;29;19936;-76
2023/05/13 00:28:19;;;;;;;;;;;11.50;99.90;;;;;;4819754;29;19937;-76
2023/05/13 00:30:48;;;;;;;;;;;11.40;99.90;;;;;;4801823;29;19936;-76
2023/05/13 00:33:16;;;;;;;;;;;11.40;99.90;;;;;;4803344;29;19936;-76
2023/05/13 00:35:43;;;;;;;;;;;11.50;99.90;;;;;;4831206;29;20829;-76
2023/05/13 00:38:10;;;;;;;;;;;11.50;99.90;;;;;;4819395;29;19961;-77
2023/05/13 00:40:41;;;;;;;;;;;10.30;99.90;;;;;;4799069;29;20348;-77
2023/05/13 00:43:09;;;;;;;;;;;12.00;99.90;;;;;;4821750;29;19959;-77
2023/05/13 00:45:37;;;;;;;;;;;11.30;99.90;;;;;;4796932;29;20328;-76
2023/05/13 00:48:05;;;;;;;;;;;11.70;99.90;;;;;;4821824;29;19940;-76
2023/05/13 00:50:41;;;;;;;;;;;11.30;99.90;;;;;;4819046;29;19957;-77
2023/05/13 00:53:08;;;;;;;;;;;11.70;99.90;;;;;;4796300;29;19943;-76
2023/05/13 00:55:42;;;;;;;;;;;11.30;99.90;;;;;;4793770;29;20042;-77
2023/05/13 00:58:10;;;;;;;;;;;11.30;99.90;;;;;;4820431;29;19932;-76
2023/05/13 01:00:49;;;;;;;;;;;11.20;99.90;;;;;;4812060;29;20314;-77
2023/05/13 01:03:25;;;;;;;;;;;11.10;99.90;;;;;;4786618;29;20020;-77
2023/05/13 01:05:52;;;;;;;;;;;11.40;99.90;;;;;;4816471;29;19943;-75
2023/05/13 01:08:30;;;;;;;;;;;11.40;99.90;;;;;;4802364;29;19932;-77
2023/05/13 01:11:29;;;;;;;;;;;11.30;99.90;;;;;;4803876;29;19985;-76
2023/05/13 01:14:05;;;;;;;;;;;11.40;99.90;;;;;;4814804;29;19936;-76
2023/05/13 01:16:40;;;;;;;;;;;11.40;99.90;;;;;;4802535;29;19936;-76
2023/05/13 01:19:20;;;;;;;;;;;11.40;99.90;;;;;;4816359;29;19936;-76
2023/05/13 01:21:51;;;;;;;;;;;11.40;99.90;;;;;;4814634;29;20667;-76
2023/05/13 01:24:18;;;;;;;;;;;11.30;99.90;;;;;;4801143;29;19944;-77
2023/05/13 01:26:45;;;;;;;;;;;11.40;99.90;;;;;;4816970;29;20639;-76
2023/05/13 01:29:12;;;;;;;;;;;11.30;99.90;;;;;;4806496;29;20711;-77
2023/05/13 01:31:41;;;;;;;;;;;11.40;99.90;;;;;;4822423;29;19936;-78
2023/05/13 01:34:10;;;;;;;;;;;11.40;99.90;;;;;;4813544;29;20015;-78
2023/05/13 01:36:38;;;;;;;;;;;11.30;99.90;;;;;;4846099;29;19935;-78
2023/05/13 01:39:07;;;;;;;;;;;11.30;99.90;;;;;;4783244;29;19936;-77
2023/05/13 01:41:34;;;;;;;;;;;11.10;99.90;;;;;;4794181;29;20031;-77
2023/05/13 01:44:02;;;;;;;;;;;11.20;99.90;;;;;;4800586;29;19928;-77
2023/05/13 01:46:32;;;;;;;;;;;11.20;99.90;;;;;;4818726;29;19937;-77
2023/05/13 01:49:02;;;;;;;;;;;11.30;99.90;;;;;;4813007;29;22107;-75
2023/05/13 01:51:30;;;;;;;;;;;11.20;99.90;;;;;;4793071;29;19936;-77
2023/05/13 01:53:57;;;;;;;;;;;11.30;99.90;;;;;;4828003;29;19943;-77
2023/05/13 01:56:32;;;;;;;;;;;11.20;99.90;;;;;;4802101;29;20593;-78
2023/05/13 01:59:02;;;;;;;;;;;11.20;99.90;;;;;;4805739;29;20019;-77
2023/05/13 02:01:29;;;;;;;;;;;11.10;99.90;;;;;;4799375;29;22336;-76
2023/05/13 02:03:58;;;;;;;;;;;11.20;99.90;;;;;;4796751;29;20361;-76
2023/05/13 02:06:26;;;;;;;;;;;11.20;99.90;;;;;;4812071;29;20728;-76
2023/05/13 02:08:54;;;;;;;;;;;11.10;99.90;;;;;;4785951;29;19943;-76
2023/05/13 02:11:21;;;;;;;;;;;11.20;99.90;;;;;;4815061;29;20394;-77
2023/05/13 02:13:48;;;;;;;;;;;11.10;99.90;;;;;;4817258;29;19994;-76
2023/05/13 02:16:16;;;;;;;;;;;11.00;99.90;;;;;;4787223;29;19935;-76
2023/05/13 02:18:43;;;;;;;;;;;11.10;99.90;;;;;;4803292;29;19944;-75
2023/05/13 02:21:10;;;;;;;;;;;11.00;99.90;;;;;;4805326;29;19932;-75
2023/05/13 02:23:37;;;;;;;;;;;11.00;99.90;;;;;;4798398;29;22217;-75
2023/05/13 02:26:04;;;;;;;;;;;11.00;99.90;;;;;;4801794;29;19943;-75
2023/05/13 02:28:31;;;;;;;;;;;11.10;99.90;;;;;;4811813;29;20715;-76
2023/05/13 02:30:58;;;;;;;;;;;11.00;99.90;;;;;;4815058;29;19943;-75
2023/05/13 02:33:26;;;;;;;;;;;10.90;99.90;;;;;;4799782;29;20518;-75
2023/05/13 02:35:53;;;;;;;;;;;11.00;99.90;;;;;;4803289;29;19936;-75
2023/05/13 02:38:20;;;;;;;;;;;10.90;99.90;;;;;;4800704;29;19942;-75
2023/05/13 02:40:47;;;;;;;;;;;10.90;99.90;;;;;;4799036;29;19943;-75
2023/05/13 02:43:14;;;;;;;;;;;10.80;99.90;;;;;;4818218;29;20312;-75
2023/05/13 02:45:52;;;;;;;;;;;10.80;99.90;;;;;;4819781;29;20102;-75
2023/05/13 02:48:20;;;;;;;;;;;10.80;99.90;;;;;;4800655;29;20062;-75
2023/05/13 02:50:47;;;;;;;;;;;10.70;99.90;;;;;;4800464;29;22571;-76
2023/05/13 02:53:14;;;;;;;;;;;10.80;99.90;;;;;;4817745;29;19941;-75
2023/05/13 02:55:48;;;;;;;;;;;10.80;99.90;;;;;;4807689;29;20704;-76
2023/05/13 02:58:15;;;;;;;;;;;10.80;99.90;;;;;;4794632;29;19943;-75
2023/05/13 03:00:44;;;;;;;;;;;10.80;99.90;;;;;;4783990;29;19966;-75
2023/05/13 03:03:11;;;;;;;;;;;10.80;99.90;;;;;;4800481;29;19932;-75
2023/05/13 03:05:38;;;;;;;;;;;10.80;99.90;;;;;;4822386;29;19974;-75
2023/05/13 03:08:05;;;;;;;;;;;10.80;99.90;;;;;;4817528;29;19958;-75
2023/05/13 03:10:33;;;;;;;;;;;10.80;99.90;;;;;;4838121;29;19933;-75
2023/05/13 03:13:00;;;;;;;;;;;10.80;99.90;;;;;;4812469;29;20752;-75
2023/05/13 03:15:28;;;;;;;;;;;10.80;99.90;;;;;;4818874;29;20005;-75
2023/05/13 03:17:56;;;;;;;;;;;10.70;99.90;;;;;;4780121;29;19936;-76
2023/05/13 03:20:24;;;;;;;;;;;10.70;99.90;;;;;;4787692;29;19936;-75
2023/05/13 03:22:51;;;;;;;;;;;10.70;99.90;;;;;;4829759;29;19936;-75
2023/05/13 03:25:19;;;;;;;;;;;10.70;99.90;;;;;;4783968;29;19936;-75
2023/05/13 03:27:50;;;;;;;;;;;10.80;99.90;;;;;;4827174;29;19943;-76
2023/05/13 03:30:20;;;;;;;;;;;10.70;99.90;;;;;;4814118;29;19936;-75
2023/05/13 03:32:56;;;;;;;;;;;10.70;99.90;;;;;;4829738;29;19965;-76
2023/05/13 03:35:23;;;;;;;;;;;10.70;99.90;;;;;;4782122;29;19940;-75
2023/05/13 03:37:51;;;;;;;;;;;10.80;99.90;;;;;;4783285;29;19943;-75
2023/05/13 03:40:18;;;;;;;;;;;10.80;99.90;;;;;;4805187;29;19936;-76
2023/05/13 03:42:46;;;;;;;;;;;10.80;99.90;;;;;;4807836;29;20027;-75
2023/05/13 03:45:13;;;;;;;;;;;10.80;99.90;;;;;;4819670;29;19936;-75
2023/05/13 03:47:43;;;;;;;;;;;10.70;99.90;;;;;;4804294;29;19944;-75
2023/05/13 03:50:14;;;;;;;;;;;10.80;99.90;;;;;;4803780;29;19936;-76
2023/05/13 03:52:43;;;;;;;;;;;10.80;99.90;;;;;;4798932;29;19935;-76
2023/05/13 03:55:13;;;;;;;;;;;10.80;99.90;;;;;;4818619;29;20075;-76
2023/05/13 03:57:46;;;;;;;;;;;10.80;99.90;;;;;;4815514;29;19932;-76
2023/05/13 04:00:15;;;;;;;;;;;10.80;99.90;;;;;;4829812;29;19940;-76
2023/05/13 04:02:42;;;;;;;;;;;10.80;99.90;;;;;;4802938;29;19932;-77
2023/05/13 04:05:12;;;;;;;;;;;10.80;99.90;;;;;;4782504;29;19939;-76
2023/05/13 04:07:40;;;;;;;;;;;10.80;99.90;;;;;;4804212;29;19945;-76
2023/05/13 04:10:07;;;;;;;;;;;10.80;99.90;;;;;;4802216;29;20031;-77
2023/05/13 04:12:35;;;;;;;;;;;10.80;99.90;;;;;;4816966;29;19943;-75
2023/05/13 04:15:02;;;;;;;;;;;10.90;99.90;;;;;;4826488;29;19938;-77
2023/05/13 04:17:29;;;;;;;;;;;10.80;99.90;;;;;;4822005;29;19990;-77
2023/05/13 04:19:56;;;;;;;;;;;10.70;99.90;;;;;;4819262;29;20050;-78
2023/05/13 04:22:26;;;;;;;;;;;10.80;99.90;;;;;;4799069;29;19940;-77
2023/05/13 04:24:55;;;;;;;;;;;10.80;99.90;;;;;;4789446;29;22280;-77
2023/05/13 04:27:23;;;;;;;;;;;10.60;99.90;;;;;;4807022;29;19964;-78
2023/05/13 04:29:56;;;;;;;;;;;9.80;99.90;;;;;;4833139;29;20003;-77
2023/05/13 04:32:24;;;;;;;;;;;10.20;99.90;;;;;;4816787;29;19974;-77
2023/05/13 04:34:54;;;;;;;;;;;10.80;99.90;;;;;;4833125;29;19939;-77
2023/05/13 04:37:23;;;;;;;;;;;10.70;99.90;;;;;;4816258;29;19959;-76
2023/05/13 04:39:53;;;;;;;;;;;10.80;99.90;;;;;;4798008;29;19980;-77
2023/05/13 04:42:22;;;;;;;;;;;10.80;99.90;;;;;;4781251;29;19936;-77
2023/05/13 04:44:49;;;;;;;;;;;10.80;99.90;;;;;;4825027;29;19936;-76
2023/05/13 04:47:17;;;;;;;;;;;10.90;99.90;;;;;;4814890;29;19943;-74
2023/05/13 04:49:44;;;;;;;;;;;10.80;99.90;;;;;;4812586;29;20403;-78
2023/05/13 04:52:12;;;;;;;;;;;10.80;99.90;;;;;;4814553;29;19937;-75
2023/05/13 04:54:39;;;;;;;;;;;10.80;99.90;;;;;;4789502;29;19936;-75
2023/05/13 04:57:06;;;;;;;;;;;10.70;99.90;;;;;;4815801;29;20060;-75
2023/05/13 04:59:34;;;;;;;;;;;10.70;99.90;;;;;;4813788;29;20074;-77
2023/05/13 05:02:01;;;;;;;;;;;10.70;99.90;;;;;;4819584;29;20140;-75
2023/05/13 05:04:28;;;;;;;;;;;10.70;99.90;;;;;;4780848;29;19987;-75
2023/05/13 05:06:56;;;;;;;;;;;10.80;99.90;;;;;;4810937;29;19943;-76
2023/05/13 05:09:23;;;;;;;;;;;10.90;99.90;;;;;;4815897;29;20329;-75
2023/05/13 05:11:51;;;;;;;;;;;10.80;99.90;;;;;;4814413;29;20101;-76
2023/05/13 05:14:21;;;;;;;;;;;10.90;99.90;;;;;;4802564;29;19953;-76
2023/05/13 05:16:49;;;;;;;;;;;10.90;99.90;;;;;;4813607;29;19936;-75
2023/05/13 05:19:22;;;;;;;;;;;10.90;99.90;;;;;;4812562;29;19940;-76
2023/05/13 05:21:50;;;;;;;;;;;10.90;99.90;;;;;;4827945;29;20027;-75
2023/05/13 05:24:18;;;;;;;;;;;10.90;99.90;;;;;;4798667;29;19945;-75
2023/05/13 05:26:46;;;;;;;;;;;10.90;99.90;;;;;;4781475;29;19943;-75
2023/05/13 05:29:13;;;;;;;;;;;10.90;99.90;;;;;;4819228;29;19935;-76
2023/05/13 05:31:42;;;;;;;;;;;11.00;99.90;;;;;;4827823;29;19928;-75
2023/05/13 05:34:09;;;;;;;;;;;11.00;99.90;;;;;;4800318;29;19936;-76
2023/05/13 05:36:36;;;;;;;;;;;11.00;99.90;;;;;;4824094;29;19932;-75
2023/05/13 05:39:04;;;;;;;;;;;11.00;99.90;;;;;;4823538;29;19943;-76
2023/05/13 05:41:34;;;;;;;;;;;11.00;99.90;;;;;;4814062;29;19936;-75
2023/05/13 05:44:01;;;;;;;;;;;11.10;99.90;;;;;;4800119;29;19936;-76
2023/05/13 05:46:30;;;;;;;;;;;11.00;99.90;;;;;;4799059;29;19936;-77
2023/05/13 05:48:58;;;;;;;;;;;11.00;99.90;;;;;;4790366;29;20308;-76
2023/05/13 05:51:25;;;;;;;;;;;11.00;99.90;;;;;;4799442;29;19928;-75
2023/05/13 05:53:52;;;;;;;;;;;11.00;99.90;;;;;;4813897;29;19936;-76
2023/05/13 05:56:20;;;;;;;;;;;11.10;99.90;;;;;;4800680;29;20743;-76
2023/05/13 05:58:47;;;;;;;;;;;11.10;99.90;;;;;;4790928;29;19936;-76
2023/05/13 06:01:15;;;;;;;;;;;11.10;99.90;;;;;;4811992;29;19936;-75
2023/05/13 06:03:44;;;;;;;;;;;11.10;99.90;;;;;;4795647;29;19968;-76
2023/05/13 06:06:11;;;;;;;;;;;11.20;99.90;;;;;;4790105;29;19935;-76
2023/05/13 06:08:39;;;;;;;;;;;11.10;99.90;;;;;;4833892;29;19943;-76
2023/05/13 06:11:07;;;;;;;;;;;11.10;99.90;;;;;;4815284;29;20464;-76
2023/05/13 06:13:34;;;;;;;;;;;11.00;99.90;;;;;;4800220;29;19936;-76
2023/05/13 06:16:01;;;;;;;;;;;11.20;99.90;;;;;;4811041;29;20052;-76
2023/05/13 06:18:28;;;;;;;;;;;11.20;99.90;;;;;;4827996;29;19939;-76
2023/05/13 06:20:56;;;;;;;;;;;11.20;99.90;;;;;;4789665;29;19943;-77
2023/05/13 06:23:23;;;;;;;;;;;11.20;99.90;;;;;;4815257;29;20035;-75
2023/05/13 06:25:50;;;;;;;;;;;11.30;99.90;;;;;;4793859;29;19936;-77
2023/05/13 06:28:17;;;;;;;;;;;11.30;99.90;;;;;;4798184;29;19947;-76
2023/05/13 06:30:44;;;;;;;;;;;11.20;99.90;;;;;;4791172;29;20304;-76
2023/05/13 06:33:11;;;;;;;;;;;11.30;99.90;;;;;;4814736;29;20431;-76
2023/05/13 06:35:38;;;;;;;;;;;11.30;99.90;;;;;;4785346;29;19936;-75
2023/05/13 06:38:07;;;;;;;;;;;11.30;99.90;;;;;;4814004;29;19943;-78
2023/05/13 06:40:34;;;;;;;;;;;11.40;99.90;;;;;;4785712;29;19943;-76
2023/05/13 06:43:02;;;;;;;;;;;11.40;99.90;;;;;;4814981;29;22431;-78
2023/05/13 06:45:35;;;;;;;;;;;11.30;99.90;;;;;;4797979;29;20268;-76
2023/05/13 06:48:02;;;;;;;;;;;11.40;99.90;;;;;;4811042;29;20059;-77
2023/05/13 06:50:30;;;;;;;;;;;11.40;99.90;;;;;;4799733;29;19936;-77
2023/05/13 06:52:58;;;;;;;;;;;11.40;99.90;;;;;;4800889;29;22275;-76
2023/05/13 06:55:25;;;;;;;;;;;11.50;99.90;;;;;;4813811;29;20717;-77
2023/05/13 06:57:52;;;;;;;;;;;11.60;99.90;;;;;;4798789;29;19936;-78
2023/05/13 07:00:19;;;;;;;;;;;11.60;99.90;;;;;;4796604;29;20140;-78
2023/05/13 07:02:46;;;;;;;;;;;11.60;99.90;;;;;;4791687;29;20034;-77
2023/05/13 07:05:13;;;;;;;;;;;11.70;99.90;;;;;;4799712;29;19975;-76
2023/05/13 07:07:42;;;;;;;;;;;11.80;99.90;;;;;;4821760;29;19932;-77
2023/05/13 07:10:09;;;;;;;;;;;11.80;99.90;;;;;;4822925;29;19955;-78
2023/05/13 07:12:36;;;;;;;;;;;11.80;99.90;;;;;;4797882;29;19940;-75
2023/05/13 07:15:04;;;;;;;;;;;11.80;99.90;;;;;;4801922;29;20748;-76
2023/05/13 07:17:31;;;;;;;;;;;11.80;99.90;;;;;;4795761;29;20028;-78
2023/05/13 07:19:58;;;;;;;;;;;11.90;99.90;;;;;;4783364;29;19988;-77
2023/05/13 07:22:25;;;;;;;;;;;12.00;99.90;;;;;;4819567;29;19943;-77
2023/05/13 07:24:52;;;;;;;;;;;12.00;99.90;;;;;;4810260;29;19929;-77
2023/05/13 07:27:20;;;;;;;;;;;12.00;99.90;;;;;;4813762;29;20035;-76
2023/05/13 07:29:47;;;;;;;;;;;12.10;99.90;;;;;;4817496;29;23417;-77
2023/05/13 07:32:14;;;;;;;;;;;12.10;99.90;;;;;;4817166;29;20413;-77
2023/05/13 07:34:43;;;;;;;;;;;12.20;99.90;;;;;;4805310;29;19932;-78
2023/05/13 07:37:10;;;;;;;;;;;12.30;99.90;;;;;;4793259;29;20459;-77
2023/05/13 07:39:37;;;;;;;;;;;12.40;99.90;;;;;;4793095;29;19975;-76
2023/05/13 07:42:04;;;;;;;;;;;12.40;99.90;;;;;;4812887;29;20041;-77
2023/05/13 07:44:32;;;;;;;;;;;12.30;99.90;;;;;;4807358;29;20167;-77
2023/05/13 07:46:59;;;;;;;;;;;12.30;99.90;;;;;;4796190;29;19967;-76
2023/05/13 07:49:27;;;;;;;;;;;12.30;99.90;;;;;;4798549;29;19936;-77
2023/05/13 07:51:54;;;;;;;;;;;12.30;99.90;;;;;;4799583;29;19963;-76
2023/05/13 07:54:21;;;;;;;;;;;12.30;99.90;;;;;;4779175;29;19936;-76
2023/05/13 07:56:49;;;;;;;;;;;12.30;99.90;;;;;;4805641;29;19945;-78
2023/05/13 07:59:17;;;;;;;;;;;12.40;99.90;;;;;;4810059;29;22354;-75
2023/05/13 08:01:44;;;;;;;;;;;12.50;99.90;;;;;;4795596;29;20277;-78
2023/05/13 08:04:11;;;;;;;;;;;12.50;99.90;;;;;;4784016;29;20361;-76
2023/05/13 08:06:38;;;;;;;;;;;12.50;99.90;;;;;;4794405;29;20061;-77
2023/05/13 08:09:08;;;;;;;;;;;12.60;99.90;;;;;;4784735;29;20320;-76
2023/05/13 08:11:35;;;;;;;;;;;12.60;99.90;;;;;;4798923;29;19936;-76
2023/05/13 08:14:02;;;;;;;;;;;12.60;99.90;;;;;;4798915;29;19944;-76
2023/05/13 08:16:29;;;;;;;;;;;12.50;99.90;;;;;;4794329;29;22259;-77
2023/05/13 08:18:56;;;;;;;;;;;12.50;99.90;;;;;;4811533;29;20415;-75
2023/05/13 08:21:23;;;;;;;;;;;12.60;99.90;;;;;;4799738;29;19936;-77
2023/05/13 08:23:51;;;;;;;;;;;12.70;99.90;;;;;;4782302;29;19936;-76
2023/05/13 08:26:18;;;;;;;;;;;12.70;99.90;;;;;;4817616;29;19939;-77
2023/05/13 08:28:45;;;;;;;;;;;12.60;99.90;;;;;;4811105;29;19936;-75
2023/05/13 08:31:12;;;;;;;;;;;12.50;99.90;;;;;;4791817;29;20309;-76
2023/05/13 08:33:44;;;;;;;;;;;12.50;99.90;;;;;;4820248;29;19943;-77
2023/05/13 08:36:12;;;;;;;;;;;12.70;99.90;;;;;;4820020;29;19932;-76
2023/05/13 08:38:39;;;;;;;;;;;12.80;99.90;;;;;;4794141;29;19943;-75
2023/05/13 08:41:06;;;;;;;;;;;12.70;99.90;;;;;;4804131;29;19933;-77
2023/05/13 08:43:34;;;;;;;;;;;12.80;99.90;;;;;;4796748;29;20661;-78
2023/05/13 08:46:02;;;;;;;;;;;12.80;99.90;;;;;;4813537;29;19967;-77
2023/05/13 08:48:30;;;;;;;;;;;13.00;99.90;;;;;;4791776;29;22403;-77
2023/05/13 08:50:57;;;;;;;;;;;13.20;99.90;;;;;;4808381;29;19932;-77
2023/05/13 08:53:25;;;;;;;;;;;13.20;99.90;;;;;;4806643;29;19928;-78
2023/05/13 08:55:52;;;;;;;;;;;13.30;99.90;;;;;;4814182;29;20408;-76
2023/05/13 08:58:19;;;;;;;;;;;13.30;99.90;;;;;;4821937;29;19944;-76
2023/05/13 09:00:50;;;;;;;;;;;13.30;99.90;;;;;;4819412;29;19936;-77
2023/05/13 09:03:18;;;;;;;;;;;13.30;99.90;;;;;;4821185;29;19948;-78
2023/05/13 09:05:45;;;;;;;;;;;13.20;99.90;;;;;;4783781;29;19932;-77
2023/05/13 09:08:12;;;;;;;;;;;13.30;99.90;;;;;;4819949;29;20471;-76
2023/05/13 09:10:39;;;;;;;;;;;13.20;99.90;;;;;;4832755;29;19936;-75
2023/05/13 09:13:06;;;;;;;;;;;13.30;99.90;;;;;;4799166;29;19936;-78
2023/05/13 09:15:33;;;;;;;;;;;13.30;99.90;;;;;;4793352;29;19936;-76
2023/05/13 09:18:03;;;;;;;;;;;13.30;99.90;;;;;;4795612;29;20159;-76
2023/05/13 09:20:30;;;;;;;;;;;13.20;99.90;;;;;;4797374;29;20027;-76
2023/05/13 09:23:08;;;;;;;;;;;13.30;99.90;;;;;;4793562;29;20809;-76
2023/05/13 09:25:37;;;;;;;;;;;13.50;99.90;;;;;;4780411;29;20061;-76
2023/05/13 09:28:06;;;;;;;;;;;13.60;99.90;;;;;;4776505;29;20562;-75
2023/05/13 09:30:34;;;;;;;;;;;13.50;99.90;;;;;;4788828;29;20596;-76
2023/05/13 09:33:03;;;;;;;;;;;13.60;99.90;;;;;;4787185;29;19936;-77
2023/05/13 09:35:31;;;;;;;;;;;13.70;99.90;;;;;;4777432;29;19937;-76
2023/05/13 09:37:58;;;;;;;;;;;13.70;99.90;;;;;;4786221;29;19937;-77
2023/05/13 09:40:25;;;;;;;;;;;13.90;99.90;;;;;;4773650;29;19943;-77
2023/05/13 09:42:55;;;;;;;;;;;13.90;99.90;;;;;;4788748;29;19933;-76
2023/05/13 09:45:22;;;;;;;;;;;13.80;99.90;;;;;;4781541;29;20399;-76
2023/05/13 09:47:51;;;;;;;;;;;13.70;99.90;;;;;;4777255;29;19936;-75
2023/05/13 09:50:18;;;;;;;;;;;13.80;99.90;;;;;;4784759;29;19989;-75
2023/05/13 09:52:46;;;;;;;;;;;13.80;99.90;;;;;;4796038;29;19935;-76
2023/05/13 09:55:13;;;;;;;;;;;13.80;99.90;;;;;;4780071;29;19928;-76
2023/05/13 09:57:40;;;;;;;;;;;14.00;99.90;;;;;;4784289;29;20570;-76
2023/05/13 10:00:08;;;;;;;;;;;14.00;99.90;;;;;;4801666;29;20612;-76
2023/05/13 10:02:50;;;;;;;;;;;13.80;99.90;;;;;;4818847;29;20460;-77
2023/05/13 10:05:18;;;;;;;;;;;13.80;99.90;;;;;;4792517;29;19936;-76
2023/05/13 10:07:45;;;;;;;;;;;13.70;99.90;;;;;;4805236;29;19939;-76
2023/05/13 10:10:12;;;;;;;;;;;13.80;99.90;;;;;;4806137;29;20535;-78
2023/05/13 10:12:40;;;;;;;;;;;13.90;99.90;;;;;;4814770;29;19942;-75
2023/05/13 10:15:07;;;;;;;;;;;14.00;99.90;;;;;;4812336;29;19943;-75
2023/05/13 10:17:34;;;;;;;;;;;13.90;99.90;;;;;;4813749;29;19940;-80
2023/05/13 10:20:03;;;;;;;;;;;13.80;99.90;;;;;;4811412;29;22205;-76
2023/05/13 10:22:33;;;;;;;;;;;13.80;99.90;;;;;;4822284;29;19947;-77
2023/05/13 10:25:01;;;;;;;;;;;14.00;99.90;;;;;;4802285;29;19939;-78
2023/05/13 10:27:30;;;;;;;;;;;14.10;99.90;;;;;;4795423;29;20793;-77
2023/05/13 10:29:58;;;;;;;;;;;14.10;99.90;;;;;;4815766;29;19936;-76
2023/05/13 10:32:29;;;;;;;;;;;14.20;99.90;;;;;;4833732;29;19928;-75
2023/05/13 10:35:03;;;;;;;;;;;14.30;99.90;;;;;;4840716;29;19991;-77
2023/05/13 10:37:30;;;;;;;;;;;14.20;99.90;;;;;;4842257;29;19943;-75
2023/05/13 10:40:15;;;;;;;;;;;14.10;99.90;;;;;;4832922;29;19936;-75
2023/05/13 10:42:46;;;;;;;;;;;13.90;99.90;;;;;;4828624;29;19971;-77
2023/05/13 10:45:15;;;;;;;;;;;13.80;99.90;;;;;;4848811;29;20289;-76
2023/05/13 10:47:42;;;;;;;;;;;13.70;99.90;;;;;;4821334;29;19975;-77
2023/05/13 10:50:29;;;;;;;;;;;13.70;99.90;;;;;;4808042;29;19943;-75
2023/05/13 10:52:57;;;;;;;;;;;13.70;99.90;;;;;;4815188;29;19989;-76
2023/05/13 10:55:25;;;;;;;;;;;13.60;99.90;;;;;;4813085;29;19936;-77
2023/05/13 10:58:11;;;;;;;;;;;13.60;99.90;;;;;;4807685;29;19992;-75
2023/05/13 11:00:40;;;;;;;;;;;13.60;99.90;;;;;;4799222;29;19936;-75
2023/05/13 11:03:30;;;;;;;;;;;13.60;99.90;;;;;;4813928;29;22327;-77
2023/05/13 11:05:58;;;;;;;;;;;13.60;99.90;;;;;;4795098;29;19936;-77
2023/05/13 11:08:39;;;;;;;;;;;13.60;99.90;;;;;;4815367;29;19941;-77
2023/05/13 11:11:21;;;;;;;;;;;13.50;99.90;;;;;;4803675;29;20634;-75
2023/05/13 11:13:49;;;;;;;;;;;13.60;99.90;;;;;;4797797;29;20111;-75
2023/05/13 11:16:16;;;;;;;;;;;13.50;99.90;;;;;;4816222;29;19929;-77
2023/05/13 11:18:44;;;;;;;;;;;13.60;99.90;;;;;;4783665;29;20019;-76
2023/05/13 11:21:11;;;;;;;;;;;13.60;99.90;;;;;;4811639;29;19967;-75
2023/05/13 11:23:51;;;;;;;;;;;13.70;99.90;;;;;;4798646;29;19943;-75
2023/05/13 11:26:20;;;;;;;;;;;13.70;99.90;;;;;;4799959;29;19936;-76
2023/05/13 11:28:54;;;;;;;;;;;13.70;99.90;;;;;;4817640;29;20023;-76
2023/05/13 11:31:22;;;;;;;;;;;13.60;99.90;;;;;;4801483;29;19936;-76
2023/05/13 11:34:05;;;;;;;;;;;13.60;99.90;;;;;;4813197;29;19942;-75
2023/05/13 11:36:33;;;;;;;;;;;13.60;99.90;;;;;;4813071;29;19943;-75
2023/05/13 11:39:04;;;;;;;;;;;13.70;99.90;;;;;;4817192;29;22328;-76
2023/05/13 11:41:32;;;;;;;;;;;13.70;99.90;;;;;;4812411;29;20268;-76
2023/05/13 11:44:02;;;;;;;;;;;13.70;99.90;;;;;;4799320;29;19944;-77
2023/05/13 11:46:29;;;;;;;;;;;13.90;99.90;;;;;;4814947;29;19943;-75
2023/05/13 11:48:56;;;;;;;;;;;13.90;99.90;;;;;;4815231;29;19936;-76
2023/05/13 11:51:24;;;;;;;;;;;13.90;99.90;;;;;;4783975;29;19943;-75
2023/05/13 11:53:54;;;;;;;;;;;13.90;99.90;;;;;;4790197;29;19988;-75
2023/05/13 11:56:24;;;;;;;;;;;13.90;99.90;;;;;;4816355;29;19936;-74
2023/05/13 11:58:52;;;;;;;;;;;13.90;99.90;;;;;;4799819;29;20018;-74
2023/05/13 12:01:19;;;;;;;;;;;13.90;99.90;;;;;;4799257;29;20626;-76
2023/05/13 12:03:46;;;;;;;;;;;13.90;99.90;;;;;;4818069;29;19928;-76
2023/05/13 12:06:14;;;;;;;;;;;13.90;99.90;;;;;;4802513;29;19936;-75
2023/05/13 12:08:45;;;;;;;;;;;14.00;99.90;;;;;;4817521;29;19940;-75
2023/05/13 12:11:12;;;;;;;;;;;14.00;99.90;;;;;;4802255;29;19936;-76
2023/05/13 12:13:40;;;;;;;;;;;14.10;99.90;;;;;;4798901;29;19936;-75
2023/05/13 12:16:07;;;;;;;;;;;14.10;99.90;;;;;;4799928;29;20022;-76
2023/05/13 12:18:36;;;;;;;;;;;14.10;99.90;;;;;;4817275;29;19936;-75
2023/05/13 12:21:12;;;;;;;;;;;14.20;99.90;;;;;;4801430;29;22202;-76
2023/05/13 12:23:39;;;;;;;;;;;14.30;99.90;;;;;;4828770;29;20315;-75
2023/05/13 12:26:07;;;;;;;;;;;14.40;99.90;;;;;;4806121;29;19936;-76
2023/05/13 12:28:33;;;;;;;;;;;14.40;99.90;;;;;;4800062;29;19947;-74
2023/05/13 12:31:01;;;;;;;;;;;14.50;99.90;;;;;;4817534;29;20707;-75
2023/05/13 12:33:32;;;;;;;;;;;14.40;99.90;;;;;;4819844;29;20535;-78
2023/05/13 12:36:14;;;;;;;;;;;14.50;99.90;;;;;;4798506;29;19943;-77
2023/05/13 12:38:54;;;;;;;;;;;14.50;99.90;;;;;;4789463;29;19936;-75
2023/05/13 12:41:25;;;;;;;;;;;14.50;99.90;;;;;;4776446;29;20033;-77
2023/05/13 12:43:59;;;;;;;;;;;14.40;99.90;;;;;;4781724;29;20085;-76
2023/05/13 12:46:27;;;;;;;;;;;14.40;99.90;;;;;;4810145;29;19940;-78
2023/05/13 12:48:58;;;;;;;;;;;14.50;99.90;;;;;;4810064;29;20372;-75
2023/05/13 12:51:25;;;;;;;;;;;14.50;99.90;;;;;;4814948;29;19936;-75
2023/05/13 12:53:53;;;;;;;;;;;14.40;99.90;;;;;;4798355;29;19943;-75
2023/05/13 12:56:21;;;;;;;;;;;14.40;99.90;;;;;;4799585;29;20392;-75
2023/05/13 12:58:49;;;;;;;;;;;14.50;99.90;;;;;;4812908;29;19936;-75
2023/05/13 13:01:16;;;;;;;;;;;14.50;99.90;;;;;;4822597;29;20304;-75
2023/05/13 13:03:44;;;;;;;;;;;14.50;99.90;;;;;;4816894;29;19995;-75
2023/05/13 13:06:12;;;;;;;;;;;14.40;99.90;;;;;;4811618;29;19936;-76
2023/05/13 13:08:39;;;;;;;;;;;14.40;99.90;;;;;;4799300;29;19977;-77
2023/05/13 13:11:06;;;;;;;;;;;14.40;99.90;;;;;;4802646;29;20226;-78
2023/05/13 13:13:33;;;;;;;;;;;14.50;99.90;;;;;;4826398;29;20392;-76
2023/05/13 13:16:01;;;;;;;;;;;14.50;99.90;;;;;;4812578;29;19987;-77
2023/05/13 13:18:28;;;;;;;;;;;14.50;99.90;;;;;;4805386;29;19936;-76
2023/05/13 13:20:55;;;;;;;;;;;14.60;99.90;;;;;;4805795;29;20596;-75
2023/05/13 13:23:22;;;;;;;;;;;14.60;99.90;;;;;;4797305;29;22361;-75
2023/05/13 13:25:51;;;;;;;;;;;14.70;99.90;;;;;;4822545;29;20178;-75
2023/05/13 13:28:17;;;;;;;;;;;14.80;99.90;;;;;;4824878;29;19928;-76
2023/05/13 13:30:48;;;;;;;;;;;14.90;99.90;;;;;;4800843;29;19933;-77
2023/05/13 13:33:15;;;;;;;;;;;14.90;99.90;;;;;;4798260;29;20062;-77
2023/05/13 13:35:43;;;;;;;;;;;14.90;99.90;;;;;;4800844;29;19936;-78
2023/05/13 13:38:10;;;;;;;;;;;14.90;99.90;;;;;;4791186;29;19943;-75
2023/05/13 13:40:38;;;;;;;;;;;14.80;99.90;;;;;;4811302;29;22588;-77
2023/05/13 13:43:06;;;;;;;;;;;14.70;99.90;;;;;;4799541;29;20534;-77
2023/05/13 13:45:33;;;;;;;;;;;14.80;99.90;;;;;;4814280;29;19936;-75
2023/05/13 13:48:00;;;;;;;;;;;14.80;99.90;;;;;;4782629;29;19936;-78
2023/05/13 13:50:27;;;;;;;;;;;14.90;99.90;;;;;;4784452;29;19936;-76
2023/05/13 13:52:55;;;;;;;;;;;14.90;99.90;;;;;;4803456;29;20704;-75
2023/05/13 13:55:22;;;;;;;;;;;14.90;99.90;;;;;;4796912;29;20019;-74
2023/05/13 13:57:50;;;;;;;;;;;14.80;99.90;;;;;;4813123;29;19936;-76
2023/05/13 14:00:18;;;;;;;;;;;14.80;99.90;;;;;;4804919;29;19935;-75
2023/05/13 14:02:45;;;;;;;;;;;14.90;99.90;;;;;;4826613;29;19928;-75
2023/05/13 14:05:12;;;;;;;;;;;14.90;99.90;;;;;;4797508;29;20084;-76
2023/05/13 14:07:40;;;;;;;;;;;14.80;99.90;;;;;;4789772;29;19936;-74
2023/05/13 14:10:07;;;;;;;;;;;14.80;99.90;;;;;;4782870;29;20024;-76
2023/05/13 14:12:35;;;;;;;;;;;14.80;99.90;;;;;;4810014;29;20404;-78
2023/05/13 14:15:02;;;;;;;;;;;14.80;99.90;;;;;;4801164;29;19967;-76
2023/05/13 14:17:29;;;;;;;;;;;14.70;99.90;;;;;;4815099;29;19936;-78
2023/05/13 14:19:56;;;;;;;;;;;14.70;99.90;;;;;;4799729;29;19936;-76
2023/05/13 14:22:23;;;;;;;;;;;14.70;99.90;;;;;;4799050;29;20669;-77
2023/05/13 14:24:51;;;;;;;;;;;14.70;99.90;;;;;;4814651;29;19936;-75